createdAt,value
2018-08-30T06:31:21.577Z,24.4
2018-08-30T06:31:31.905Z,24.4
2018-08-30T06:32:22.029Z,24.4
2018-08-30T06:33:12.287Z,24.4
2018-08-30T06:34:01.994Z,24.4
2018-08-30T06:34:54.021Z,24.4
2018-08-30T06:35:42.564Z,24.4
2018-08-30T06:36:32.392Z,24.4
2018-08-30T06:37:22.110Z,24.4
2018-08-30T06:38:12.431Z,24.4
2018-08-30T06:39:02.727Z,24.4
2018-08-30T06:39:51.959Z,24.4
2018-08-30T06:40:42.934Z,24.4
2018-08-30T06:41:33.681Z,24.4
2018-08-30T06:42:22.724Z,24.4
2018-08-30T06:43:13.067Z,24.4
2018-08-30T06:44:02.719Z,24.4
2018-08-30T06:44:52.902Z,24.5
2018-08-30T06:45:42.709Z,24.5
2018-08-30T06:46:33.639Z,24.5
2018-08-30T06:47:23.704Z,24.5
2018-08-30T06:48:13.720Z,24.5
2018-08-30T06:49:05.792Z,24.5
2018-08-30T06:49:53.372Z,24.4
2018-08-30T06:50:43.941Z,24.4
2018-08-30T06:51:33.970Z,24.5
2018-08-30T06:52:24.101Z,24.6
2018-08-30T06:53:13.842Z,24.6
2018-08-30T06:54:03.301Z,24.7
2018-08-30T06:54:53.409Z,24.8
2018-08-30T06:55:44.036Z,24.8
2018-08-30T06:56:34.854Z,24.8
2018-08-30T06:57:23.906Z,24.9
2018-08-30T06:58:14.219Z,24.9
2018-08-30T06:59:04.010Z,24.9
2018-08-30T06:59:53.573Z,24.9
2018-08-30T07:00:43.305Z,24.9
2018-08-30T07:01:34.875Z,24.9
2018-08-30T07:02:24.515Z,24.9
2018-08-30T07:03:13.545Z,24.9
2018-08-30T07:04:05.131Z,24.9
2018-08-30T07:04:54.589Z,24.9
2018-08-30T07:05:44.453Z,24.9
2018-08-30T07:06:35.158Z,24.9
2018-08-30T07:07:25.200Z,25
2018-08-30T07:08:15.931Z,25
2018-08-30T07:09:03.886Z,25.1
2018-08-30T07:09:54.517Z,25.1
2018-08-30T07:10:44.878Z,25.1
2018-08-30T07:11:35.540Z,25.1
2018-08-30T07:12:24.971Z,25.1
2018-08-30T07:13:15.367Z,25.1
2018-08-30T07:14:05.533Z,25.1
2018-08-30T07:14:56.172Z,25.1
2018-08-30T07:15:45.600Z,25.1
2018-08-30T07:16:35.640Z,25.1
2018-08-30T07:17:26.172Z,25.1
2018-08-30T07:18:14.382Z,25.1
2018-08-30T07:19:05.492Z,25.2
2018-08-30T07:19:55.607Z,25.2
2018-08-30T07:20:45.662Z,25.2
2018-08-30T07:21:36.049Z,25.2
2018-08-30T07:22:26.094Z,25.3
2018-08-30T07:23:16.721Z,25.3
2018-08-30T07:24:06.537Z,25.3
2018-08-30T07:24:55.988Z,25.3
2018-08-30T07:25:46.375Z,25.3
2018-08-30T07:26:36.141Z,25.3
2018-08-30T07:27:26.991Z,25.3
2018-08-30T07:28:16.931Z,25.3
2018-08-30T07:29:06.442Z,25.3
2018-08-30T07:29:56.467Z,25.3
2018-08-30T07:30:47.019Z,25.3
2018-08-30T07:31:36.678Z,25.3
2018-08-30T07:32:25.104Z,25.3
2018-08-30T07:33:15.931Z,25.4
2018-08-30T07:34:06.357Z,25.4
2018-08-30T07:34:58.878Z,25.4
2018-08-30T07:35:47.379Z,25.4
2018-08-30T07:36:36.458Z,25.4
2018-08-30T07:37:27.710Z,25.4
2018-08-30T07:38:17.446Z,25.4
2018-08-30T07:39:06.625Z,25.4
2018-08-30T07:39:57.143Z,25.4
2018-08-30T07:40:47.198Z,25.4
2018-08-30T07:41:37.841Z,25.4
2018-08-30T07:42:26.768Z,25.4
2018-08-30T07:43:17.671Z,25.4
2018-08-30T07:44:07.545Z,25.4
2018-08-30T07:44:57.488Z,25.4
2018-08-30T07:45:48.208Z,25.4
2018-08-30T07:46:37.090Z,25.4
2018-08-30T07:47:29.131Z,25.5
2018-08-30T07:48:18.355Z,25.5
2018-08-30T07:49:08.131Z,25.5
2018-08-30T07:49:58.784Z,25.5
2018-08-30T07:50:48.303Z,25.5
2018-08-30T07:51:38.350Z,25.5
2018-08-30T07:52:28.140Z,25.6
2018-08-30T07:53:18.159Z,25.6
2018-08-30T07:54:09.060Z,25.6
2018-08-30T07:54:57.975Z,25.6
2018-08-30T07:55:48.362Z,25.6
2018-08-30T07:56:38.457Z,25.6
2018-08-30T07:57:29.641Z,25.6
2018-08-30T07:58:18.845Z,25.6
2018-08-30T07:59:08.605Z,25.6
2018-08-30T07:59:59.977Z,25.6
2018-08-30T08:00:48.480Z,25.6
2018-08-30T08:01:38.828Z,25.6
2018-08-30T08:02:28.584Z,25.6
2018-08-30T08:03:19.464Z,25.6
2018-08-30T08:04:10.129Z,25.6
2018-08-30T08:04:58.884Z,25.6
2018-08-30T08:05:48.991Z,25.6
2018-08-30T08:06:38.926Z,25.7
2018-08-30T08:07:29.371Z,25.7
2018-08-30T08:08:19.639Z,25.7
2018-08-30T08:09:09.138Z,25.7
2018-08-30T08:09:59.824Z,25.7
2018-08-30T08:10:48.456Z,25.7
2018-08-30T08:11:39.711Z,25.7
2018-08-30T08:12:30.392Z,25.8
2018-08-30T08:13:19.993Z,25.8
2018-08-30T08:14:09.202Z,25.8
2018-08-30T08:14:59.618Z,25.8
2018-08-30T08:15:49.906Z,25.8
2018-08-30T08:16:40.253Z,25.8
2018-08-30T08:17:29.455Z,25.8
2018-08-30T08:18:20.130Z,25.8
2018-08-30T08:19:11.808Z,25.8
2018-08-30T08:20:00.247Z,25.8
2018-08-30T08:20:50.583Z,25.8
2018-08-30T08:21:40.649Z,25.8
2018-08-30T08:22:31.016Z,25.8
2018-08-30T08:23:21.053Z,25.8
2018-08-30T08:24:10.868Z,25.8
2018-08-30T08:25:01.343Z,25.8
2018-08-30T08:25:51.848Z,25.8
2018-08-30T08:26:40.466Z,25.8
2018-08-30T08:27:31.125Z,25.8
2018-08-30T08:28:21.474Z,25.8
2018-08-30T08:29:10.972Z,25.8
2018-08-30T08:30:01.616Z,25.9
2018-08-30T08:30:50.781Z,25.9
2018-08-30T08:31:41.491Z,25.9
2018-08-30T08:32:30.595Z,25.9
2018-08-30T08:33:21.520Z,25.9
2018-08-30T08:34:11.337Z,25.9
2018-08-30T08:35:01.935Z,25.9
2018-08-30T08:35:51.482Z,25.9
2018-08-30T08:36:42.067Z,25.9
2018-08-30T08:37:31.382Z,25.9
2018-08-30T08:38:20.873Z,25.9
2018-08-30T08:39:11.521Z,25.9
2018-08-30T08:40:01.564Z,25.9
2018-08-30T08:40:51.332Z,25.9
2018-08-30T08:41:42.226Z,25.9
2018-08-30T08:42:32.536Z,25.9
2018-08-30T08:43:22.302Z,25.9
2018-08-30T08:44:12.471Z,25.9
2018-08-30T08:45:01.576Z,25.9
2018-08-30T08:45:52.189Z,25.9
2018-08-30T08:46:42.641Z,25.9
2018-08-30T08:47:32.954Z,25.9
2018-08-30T08:48:22.431Z,26
2018-08-30T08:49:12.190Z,26
2018-08-30T08:50:03.159Z,26
2018-08-30T08:50:52.847Z,26
2018-08-30T08:51:43.254Z,26
2018-08-30T08:52:33.075Z,26
2018-08-30T08:53:23.114Z,26
2018-08-30T08:54:13.231Z,26
2018-08-30T08:55:03.539Z,26
2018-08-30T08:55:52.781Z,26.1
2018-08-30T08:56:42.535Z,26.1
2018-08-30T08:57:32.140Z,26.1
2018-08-30T09:14:47.056Z,25.9
2018-08-30T09:15:35.420Z,26
2018-08-30T09:16:25.256Z,26
2018-08-30T09:17:15.993Z,26
2018-08-30T09:18:05.617Z,26
2018-08-30T09:18:55.608Z,26
2018-08-30T09:19:46.163Z,26
2018-08-30T09:20:35.780Z,26.1
2018-08-30T09:21:26.423Z,26.1
2018-08-30T09:22:15.873Z,26.1
2018-08-30T09:23:05.811Z,26.1
2018-08-30T09:23:56.059Z,26.1
2018-08-30T09:24:46.328Z,26.1
2018-08-30T09:25:36.980Z,26.1
2018-08-30T09:26:27.053Z,26.1
2018-08-30T09:27:18.786Z,26.1
2018-08-30T09:28:05.287Z,26.2
2018-08-30T09:28:56.355Z,26.2
2018-08-30T09:29:47.235Z,26.2
2018-08-30T09:30:37.195Z,26.2
2018-08-30T09:31:26.361Z,26.2
2018-08-30T09:32:17.488Z,26.2
2018-08-30T09:33:07.213Z,26.2
2018-08-30T09:33:57.420Z,26.3
2018-08-30T09:34:46.153Z,26.3
2018-08-30T09:35:37.138Z,26.3
2018-08-30T09:36:26.707Z,26.3
2018-08-30T09:37:17.826Z,26.3
2018-08-30T09:38:06.588Z,26.3
2018-08-30T09:38:57.835Z,26.3
2018-08-30T09:39:48.001Z,26.3
2018-08-30T09:40:37.567Z,26.3
2018-08-30T09:41:27.624Z,26.3
2018-08-30T09:42:18.014Z,26.3
2018-08-30T09:43:07.446Z,26.3
2018-08-30T09:43:58.962Z,26.3
2018-08-30T09:44:48.023Z,26.3
2018-08-30T09:45:52.303Z,26.3
2018-08-30T09:46:27.713Z,26.3
2018-08-30T09:47:17.811Z,26.3
2018-08-30T09:48:08.158Z,26.3
2018-08-30T09:48:58.233Z,26.3
2018-08-30T09:49:49.664Z,26.4
2018-08-30T09:50:38.615Z,26.4
2018-08-30T09:51:28.096Z,26.4
2018-08-30T09:52:18.180Z,26.4
2018-08-30T09:53:08.503Z,26.4
2018-08-30T09:53:58.021Z,26.4
2018-08-30T09:54:49.560Z,26.4
2018-08-30T09:55:39.288Z,26.4
2018-08-30T09:56:29.759Z,26.4
2018-08-30T09:57:21.565Z,26.4
2018-08-30T09:58:09.233Z,26.4
2018-08-30T09:58:58.973Z,26.4
2018-08-30T09:59:49.368Z,26.4
2018-08-30T10:00:39.448Z,26.4
2018-08-30T10:01:29.105Z,26.4
2018-08-30T10:02:19.317Z,26.4
2018-08-30T10:03:08.836Z,26.4
2018-08-30T10:04:00.703Z,26.4
2018-08-30T10:04:50.625Z,26.4
2018-08-30T10:05:39.762Z,26.4
2018-08-30T10:06:29.262Z,26.4
2018-08-30T10:07:19.617Z,26.4
2018-08-30T10:08:09.727Z,26.4
2018-08-30T10:08:59.025Z,26.4
2018-08-30T10:09:50.347Z,26.4
2018-08-30T10:10:39.995Z,26.4
2018-08-30T10:11:30.247Z,26.4
2018-08-30T10:12:19.504Z,26.4
2018-08-30T10:13:09.540Z,26.4
2018-08-30T10:14:00.179Z,26.4
2018-08-30T10:14:49.729Z,26.5
2018-08-30T10:15:40.130Z,26.5
2018-08-30T10:16:29.622Z,26.4
2018-08-30T10:17:20.197Z,26.5
2018-08-30T10:18:10.731Z,26.4
2018-08-30T10:19:00.094Z,26.5
2018-08-30T10:19:51.069Z,26.5
2018-08-30T10:20:40.127Z,26.5
2018-08-30T10:21:32.339Z,26.5
2018-08-30T10:22:20.163Z,26.4
2018-08-30T10:23:10.388Z,26.5
2018-08-30T10:24:00.691Z,26.5
2018-08-30T10:24:51.296Z,26.5
2018-08-30T10:25:41.763Z,26.5
2018-08-30T10:26:31.716Z,26.5
2018-08-30T10:27:20.776Z,26.5
2018-08-30T10:28:11.056Z,26.5
2018-08-30T10:29:00.773Z,26.5
2018-08-30T10:29:50.559Z,26.5
2018-08-30T10:30:41.371Z,26.5
2018-08-30T10:31:31.987Z,26.5
2018-08-30T10:32:21.331Z,26.5
2018-08-30T10:33:10.503Z,26.5
2018-08-30T10:34:01.185Z,26.6
2018-08-30T10:34:51.816Z,26.5
2018-08-30T10:35:42.166Z,26.6
2018-08-30T10:36:31.645Z,26.6
2018-08-30T10:37:20.938Z,26.6
2018-08-30T10:38:12.318Z,26.6
2018-08-30T10:39:02.620Z,26.6
2018-08-30T10:39:52.167Z,26.6
2018-08-30T10:40:41.710Z,26.6
2018-08-30T10:41:32.045Z,26.6
2018-08-30T10:42:22.204Z,26.6
2018-08-30T10:43:12.797Z,26.6
2018-08-30T10:44:02.270Z,26.6
2018-08-30T10:44:52.872Z,26.6
2018-08-30T10:45:41.760Z,26.6
2018-08-30T10:46:31.901Z,26.6
2018-08-30T10:47:21.914Z,26.6
2018-08-30T10:48:13.492Z,26.6
2018-08-30T10:49:02.884Z,26.6
2018-08-30T10:49:53.832Z,26.6
2018-08-30T10:50:42.692Z,26.6
2018-08-30T10:51:32.560Z,26.6
2018-08-30T10:52:23.447Z,26.6
2018-08-30T10:53:12.947Z,26.6
2018-08-30T10:54:03.592Z,26.6
2018-08-30T10:54:53.123Z,26.6
2018-08-30T10:55:43.129Z,26.6
2018-08-30T10:56:34.337Z,26.6
2018-08-30T10:57:24.664Z,26.6
2018-08-30T10:58:17.079Z,26.6
2018-08-30T10:59:04.113Z,26.7
2018-08-30T10:59:55.234Z,26.6
2018-08-30T11:00:47.799Z,26.6
2018-08-30T11:01:48.937Z,26.6
2018-08-30T11:02:24.343Z,26.7
2018-08-30T11:03:15.984Z,26.7
2018-08-30T11:04:04.815Z,26.6
2018-08-30T11:04:56.725Z,26.6
2018-08-30T11:05:48.939Z,26.7
2018-08-30T11:06:39.076Z,26.7
2018-08-30T11:07:27.494Z,26.7
2018-08-30T11:08:16.221Z,26.7
2018-08-30T11:09:04.694Z,26.7
2018-08-30T11:09:56.377Z,26.7
2018-08-30T11:10:45.835Z,26.7
2018-08-30T11:11:35.913Z,26.7
2018-08-30T11:12:25.190Z,26.8
2018-08-30T11:13:16.350Z,26.7
2018-08-30T11:14:09.383Z,26.7
2018-08-30T11:14:55.750Z,26.7
2018-08-30T11:15:46.858Z,26.7
2018-08-30T11:16:36.116Z,26.7
2018-08-30T11:17:26.033Z,26.7
2018-08-30T11:18:16.353Z,26.7
2018-08-30T11:19:05.225Z,26.8
2018-08-30T11:19:55.630Z,26.8
2018-08-30T11:20:45.444Z,26.8
2018-08-30T11:21:36.765Z,26.8
2018-08-30T11:22:26.658Z,26.8
2018-08-30T11:23:15.980Z,26.8
2018-08-30T11:24:09.234Z,26.8
2018-08-30T11:24:57.480Z,26.8
2018-08-30T11:25:46.683Z,26.8
2018-08-30T11:26:36.765Z,26.8
2018-08-30T11:27:25.367Z,26.8
2018-08-30T11:28:16.204Z,26.8
2018-08-30T11:29:06.151Z,26.8
2018-08-30T11:29:56.177Z,26.8
2018-08-30T11:30:45.409Z,26.8
2018-08-30T11:31:37.747Z,26.8
2018-08-30T11:32:26.504Z,26.8
2018-08-30T11:33:16.597Z,26.8
2018-08-30T11:34:06.890Z,26.8
2018-08-30T11:34:55.952Z,26.8
2018-08-30T11:35:46.555Z,26.8
2018-08-30T11:36:36.305Z,26.8
2018-08-30T11:37:26.995Z,26.8
2018-08-30T11:38:15.953Z,26.8
2018-08-30T11:39:05.955Z,26.8
2018-08-30T11:39:56.870Z,26.8
2018-08-30T11:40:47.529Z,26.8
2018-08-30T11:41:40.972Z,26.8
2018-08-30T11:42:27.889Z,26.8
2018-08-30T11:43:18.120Z,26.8
2018-08-30T11:44:08.339Z,26.8
2018-08-30T11:44:57.689Z,26.8
2018-08-30T11:45:48.871Z,26.8
2018-08-30T11:46:38.356Z,26.8
2018-08-30T11:47:27.509Z,26.8
2018-08-30T11:48:16.426Z,26.8
2018-08-30T11:49:07.659Z,26.8
2018-08-30T11:49:57.381Z,26.8
2018-08-30T11:51:02.109Z,26.8
2018-08-30T11:51:37.086Z,26.8
2018-08-30T11:52:29.281Z,26.9
2018-08-30T11:53:17.203Z,26.9
2018-08-30T11:54:08.682Z,26.8
2018-08-30T11:54:58.033Z,26.8
2018-08-30T11:55:48.376Z,26.8
2018-08-30T11:56:38.712Z,26.8
2018-08-30T11:57:27.138Z,26.8
2018-08-30T11:58:18.031Z,26.8
2018-08-30T11:59:08.955Z,26.8
2018-08-30T11:59:58.988Z,26.8
2018-08-30T12:00:49.462Z,26.8
2018-08-30T12:01:38.645Z,26.8
2018-08-30T12:02:29.430Z,26.8
2018-08-30T12:03:17.941Z,26.9
2018-08-30T12:04:08.485Z,26.9
2018-08-30T12:04:59.470Z,26.9
2018-08-30T12:05:47.740Z,26.9
2018-08-30T12:06:38.120Z,26.9
2018-08-30T12:07:29.115Z,26.9
2018-08-30T12:08:20.345Z,26.9
2018-08-30T12:09:09.048Z,26.9
2018-08-30T12:10:15.486Z,26.9
2018-08-30T12:11:06.346Z,26.9
2018-08-30T12:11:40.132Z,26.9
2018-08-30T12:12:30.186Z,26.9
2018-08-30T12:13:19.495Z,26.9
2018-08-30T12:14:09.289Z,26.9
2018-08-30T12:14:58.757Z,26.9
2018-08-30T12:15:49.737Z,26.9
2018-08-30T12:16:40.610Z,26.9
2018-08-30T12:17:30.537Z,26.9
2018-08-30T12:18:20.606Z,26.9
2018-08-30T12:19:09.534Z,26.9
2018-08-30T12:20:00.584Z,26.9
2018-08-30T12:20:52.117Z,26.9
2018-08-30T12:21:55.094Z,26.9
2018-08-30T12:22:31.019Z,26.9
2018-08-30T12:23:20.228Z,26.9
2018-08-30T12:24:10.624Z,26.9
2018-08-30T12:24:59.895Z,26.9
2018-08-30T12:25:50.164Z,26.9
2018-08-30T12:26:40.571Z,26.9
2018-08-30T12:27:30.752Z,26.9
2018-08-30T12:28:20.904Z,26.9
2018-08-30T12:29:12.569Z,26.9
2018-08-30T12:30:01.338Z,26.9
2018-08-30T12:30:50.517Z,26.9
2018-08-30T12:31:42.889Z,26.9
2018-08-30T12:32:32.072Z,26.9
2018-08-30T12:33:21.020Z,26.9
2018-08-30T12:34:12.578Z,26.9
2018-08-30T12:35:02.931Z,26.9
2018-08-30T12:35:54.144Z,26.9
2018-08-30T12:36:42.036Z,26.9
2018-08-30T12:37:32.114Z,26.9
2018-08-30T12:38:22.241Z,26.9
2018-08-30T12:39:13.039Z,26.9
2018-08-30T12:40:04.695Z,26.9
2018-08-30T12:40:51.191Z,26.9
2018-08-30T12:41:42.796Z,26.9
2018-08-30T12:42:33.001Z,26.9
2018-08-30T12:43:23.865Z,26.9
2018-08-30T12:44:12.819Z,26.9
2018-08-30T12:45:02.620Z,26.9
2018-08-30T12:45:52.328Z,26.9
2018-08-30T12:46:43.043Z,26.9
2018-08-30T12:47:33.104Z,26.9
2018-08-30T12:48:23.117Z,26.9
2018-08-30T12:49:12.393Z,26.9
2018-08-30T12:50:02.813Z,26.9
2018-08-30T12:50:55.920Z,26.9
2018-08-30T12:51:47.622Z,26.9
2018-08-30T12:52:36.020Z,26.9
2018-08-30T12:53:26.475Z,26.9
2018-08-30T12:54:16.495Z,26.9
2018-08-30T12:55:06.031Z,27
2018-08-30T12:55:55.382Z,26.9
2018-08-30T12:56:46.290Z,26.9
2018-08-30T12:57:36.229Z,26.9
2018-08-30T12:58:27.877Z,26.9
2018-08-30T12:59:14.419Z,26.9
2018-08-30T13:00:06.983Z,26.9
2018-08-30T13:00:56.803Z,26.9
2018-08-30T13:01:47.999Z,26.9
2018-08-30T13:02:38.403Z,26.9
2018-08-30T13:03:29.081Z,26.9
2018-08-30T13:04:17.550Z,26.9
2018-08-30T13:05:11.155Z,26.9
2018-08-30T13:06:00.232Z,27
2018-08-30T13:06:48.307Z,27
2018-08-30T13:07:38.520Z,27
2018-08-30T13:08:29.152Z,27
2018-08-30T13:09:24.500Z,27
2018-08-30T13:10:11.952Z,27
2018-08-30T13:11:00.710Z,27
2018-08-30T13:11:50.728Z,27
2018-08-30T13:12:42.961Z,27.1
2018-08-30T13:13:29.754Z,27
2018-08-30T13:14:23.487Z,27
2018-08-30T13:15:14.163Z,27.1
2018-08-30T13:15:59.787Z,27.1
2018-08-30T13:16:50.791Z,27.1
2018-08-30T13:17:38.110Z,27.1
2018-08-30T13:18:29.197Z,27.1
2018-08-30T13:19:25.458Z,27.1
2018-08-30T13:20:11.016Z,27.1
2018-08-30T13:21:00.871Z,27.1
2018-08-30T13:21:50.964Z,27.1
2018-08-30T13:22:44.642Z,27.1
2018-08-30T13:23:30.677Z,27.1
2018-08-30T13:24:19.723Z,27.1
2018-08-30T13:25:15.165Z,27.1
2018-08-30T13:26:15.152Z,27.1
2018-08-30T13:26:50.410Z,27.1
2018-08-30T13:27:43.133Z,27.1
2018-08-30T13:28:31.205Z,27.1
2018-08-30T13:29:20.042Z,27.1
2018-08-30T13:30:13.389Z,27.1
2018-08-30T13:31:04.702Z,27
2018-08-30T13:31:57.027Z,27
2018-08-30T13:32:43.501Z,27.1
2018-08-30T13:33:37.822Z,27
2018-08-30T13:34:30.172Z,27.1
2018-08-30T13:35:19.426Z,27
2018-08-30T13:36:05.615Z,27
2018-08-30T13:36:59.585Z,27.1
2018-08-30T13:37:45.805Z,27.1
2018-08-30T13:38:34.418Z,27.1
2018-08-30T13:39:27.271Z,27.1
2018-08-30T13:40:19.168Z,27.1
2018-08-30T13:41:08.617Z,27.1
2018-08-30T13:41:56.103Z,27.1
2018-08-30T13:42:43.605Z,27.1
2018-08-30T13:43:36.294Z,27.1
2018-08-30T13:44:29.573Z,27.1
2018-08-30T13:45:15.039Z,27.1
2018-08-30T13:46:11.302Z,27.1
2018-08-30T13:46:54.838Z,27.1
2018-08-30T13:47:48.005Z,27.1
2018-08-30T13:48:36.061Z,27.1
2018-08-30T13:49:23.847Z,27.1
2018-08-30T13:50:15.156Z,27.1
2018-08-30T13:51:05.464Z,27.1
2018-08-30T13:52:00.753Z,27.1
2018-08-30T13:52:43.793Z,27.1
2018-08-30T13:53:38.026Z,27.1
2018-08-30T13:54:25.300Z,27.1
2018-08-30T13:55:19.478Z,27.1
2018-08-30T13:56:08.469Z,27.1
2018-08-30T13:56:58.605Z,27.1
2018-08-30T13:57:56.034Z,27.1
2018-08-30T13:58:55.152Z,27.1
2018-08-30T13:59:29.075Z,27.1
2018-08-30T14:00:22.259Z,27.1
2018-08-30T14:01:16.763Z,27.1
2018-08-30T14:01:58.339Z,27.1
2018-08-30T14:02:43.898Z,27.1
2018-08-30T14:03:33.859Z,27.1
2018-08-30T14:04:25.028Z,27.1
2018-08-30T14:05:15.478Z,27.1
2018-08-30T14:06:07.455Z,27.1
2018-08-30T14:06:58.859Z,27.1
2018-08-30T14:07:42.917Z,27.1
2018-08-30T14:08:37.836Z,27.1
2018-08-30T14:09:28.205Z,27.1
2018-08-30T14:10:20.217Z,27.1
2018-08-30T14:11:06.478Z,27.1
2018-08-30T14:11:57.916Z,27.1
2018-08-30T14:12:45.946Z,27.1
2018-08-30T14:13:36.794Z,27.1
2018-08-30T14:14:25.159Z,27.1
2018-08-30T14:15:20.430Z,27.1
2018-08-30T14:15:59.397Z,27.1
2018-08-30T14:16:50.683Z,27.1
2018-08-30T14:17:39.232Z,27.1
2018-08-30T14:18:29.416Z,27.1
2018-08-30T14:19:21.876Z,27.1
2018-08-30T14:20:10.409Z,27.1
2018-08-30T14:21:00.369Z,27.1
2018-08-30T14:21:50.609Z,27.1
2018-08-30T14:22:39.932Z,27.1
2018-08-30T14:23:30.543Z,27.1
2018-08-30T14:24:19.891Z,27.1
2018-08-30T14:25:09.942Z,27.1
2018-08-30T14:25:59.347Z,27
2018-08-30T14:26:52.074Z,27
2018-08-30T14:27:40.013Z,27
2018-08-30T14:28:29.643Z,27
2018-08-30T14:29:20.438Z,26.9
2018-08-30T14:30:10.168Z,27
2018-08-30T14:31:00.389Z,27
2018-08-30T14:31:50.819Z,27
2018-08-30T14:32:40.874Z,27
2018-08-30T14:33:29.530Z,27
2018-08-30T14:34:20.273Z,27
2018-08-30T14:35:10.556Z,27
2018-08-30T14:36:01.229Z,27
2018-08-30T14:36:51.131Z,27
2018-08-30T14:37:41.318Z,27
2018-08-30T14:38:31.160Z,27.1
2018-08-30T14:39:21.673Z,27.1
2018-08-30T14:40:11.791Z,27.1
2018-08-30T14:41:20.333Z,27.1
2018-08-30T14:41:54.994Z,27.1
2018-08-30T14:42:40.806Z,27.1
2018-08-30T14:43:31.475Z,27.1
2018-08-30T14:44:21.805Z,27.1
2018-08-30T14:45:11.264Z,27.1
2018-08-30T14:46:01.878Z,27.1
2018-08-30T14:46:51.254Z,27.1
2018-08-30T14:47:45.836Z,27
2018-08-30T14:48:32.038Z,27
2018-08-30T14:49:21.337Z,27
2018-08-30T14:50:12.303Z,27.1
2018-08-30T14:51:02.790Z,27.1
2018-08-30T14:51:53.451Z,27.1
2018-08-30T14:52:41.771Z,27.1
2018-08-30T14:53:36.244Z,27.1
2018-08-30T14:54:24.799Z,27
2018-08-30T14:55:12.379Z,27.1
2018-08-30T14:56:01.992Z,27
2018-08-30T14:56:53.051Z,27.1
2018-08-30T14:57:41.655Z,27.1
2018-08-30T14:58:32.468Z,27.1
2018-08-30T14:59:23.353Z,27.1
2018-08-30T15:00:14.153Z,27.1
2018-08-30T15:01:02.403Z,27.1
2018-08-30T15:01:52.829Z,27.1
2018-08-30T15:02:42.064Z,27.1
2018-08-30T15:03:33.294Z,27.1
2018-08-30T15:04:23.618Z,27.1
2018-08-30T15:05:14.181Z,27.1
2018-08-30T15:06:07.040Z,27.1
2018-08-30T15:06:53.104Z,27.1
2018-08-30T15:07:42.893Z,27.1
2018-08-30T15:08:34.176Z,27.1
2018-08-30T15:09:23.621Z,27.1
2018-08-30T15:10:13.228Z,27.1
2018-08-30T15:11:03.541Z,27.1
2018-08-30T15:11:53.164Z,27.1
2018-08-30T15:12:46.413Z,27.1
2018-08-30T15:13:33.652Z,27.1
2018-08-30T15:14:23.981Z,27.1
2018-08-30T15:15:13.418Z,27.1
2018-08-30T15:16:04.183Z,27.1
2018-08-30T15:16:53.353Z,27
2018-08-30T15:17:44.731Z,27.1
2018-08-30T15:18:34.443Z,27
2018-08-30T15:19:23.920Z,27.1
2018-08-30T15:20:15.763Z,27.1
2018-08-30T15:21:04.236Z,27.1
2018-08-30T15:21:54.166Z,27.1
2018-08-30T15:22:43.940Z,27.1
2018-08-30T15:23:36.896Z,27.1
2018-08-30T15:24:23.836Z,27.1
2018-08-30T15:25:14.743Z,27.1
2018-08-30T15:26:03.864Z,27.1
2018-08-30T15:26:56.939Z,27.1
2018-08-30T15:27:44.761Z,27.1
2018-08-30T15:28:35.532Z,27.1
2018-08-30T15:29:27.420Z,27.1
2018-08-30T15:30:15.500Z,27.1
2018-08-30T15:31:04.895Z,27.1
2018-08-30T15:31:54.670Z,27.1
2018-08-30T15:32:45.358Z,27.1
2018-08-30T15:33:35.060Z,27.1
2018-08-30T15:34:24.215Z,27.1
2018-08-30T15:35:19.052Z,27.1
2018-08-30T15:36:05.182Z,27.1
2018-08-30T15:36:55.749Z,27.1
2018-08-30T15:37:45.601Z,27.1
2018-08-30T15:38:37.080Z,27.1
2018-08-30T15:39:25.979Z,27.1
2018-08-30T15:40:31.030Z,27.1
2018-08-30T15:41:05.690Z,27.1
2018-08-30T15:41:54.878Z,27.1
2018-08-30T15:42:46.162Z,27.1
2018-08-30T15:43:36.231Z,27.1
2018-08-30T15:44:26.702Z,27.1
2018-08-30T15:45:16.037Z,27.1
2018-08-30T15:46:07.354Z,27.1
2018-08-30T15:46:56.584Z,27.1
2018-08-30T15:47:45.646Z,27
2018-08-30T15:48:38.759Z,27
2018-08-30T15:49:27.551Z,27
2018-08-30T15:50:17.553Z,27
2018-08-30T15:51:07.746Z,27
2018-08-30T15:51:57.081Z,27
2018-08-30T15:52:48.293Z,27
2018-08-30T15:53:36.729Z,27
2018-08-30T15:54:26.364Z,27
2018-08-30T15:55:17.446Z,27
2018-08-30T15:56:09.407Z,27
2018-08-30T15:56:57.109Z,27
2018-08-30T16:15:42.257Z,26.7
2018-08-30T16:16:32.364Z,26.7
2018-08-30T16:17:25.852Z,26.7
2018-08-30T16:18:10.977Z,26.7
2018-08-30T16:19:02.881Z,26.7
2018-08-30T16:19:53.089Z,26.7
2018-08-30T16:20:43.071Z,26.7
2018-08-30T16:21:33.112Z,26.8
2018-08-30T16:22:24.321Z,26.8
2018-08-30T16:23:14.446Z,26.8
2018-08-30T16:24:02.562Z,26.8
2018-08-30T16:24:55.378Z,26.8
2018-08-30T16:25:44.706Z,26.8
2018-08-30T16:26:33.735Z,26.8
2018-08-30T16:27:22.538Z,26.8
2018-08-30T16:28:13.728Z,26.8
2018-08-30T16:29:04.647Z,26.8
2018-08-30T16:29:52.503Z,26.8
2018-08-30T16:30:46.122Z,26.8
2018-08-30T16:31:34.271Z,26.8
2018-08-30T16:32:23.075Z,26.8
2018-08-30T16:33:13.793Z,26.8
2018-08-30T16:34:03.135Z,26.8
2018-08-30T16:34:53.716Z,26.8
2018-08-30T16:35:43.751Z,26.8
2018-08-30T16:36:34.185Z,26.8
2018-08-30T16:37:24.035Z,26.8
2018-08-30T16:38:13.598Z,26.8
2018-08-30T16:39:03.521Z,26.8
2018-08-30T16:39:57.519Z,26.8
2018-08-30T16:40:43.922Z,26.8
2018-08-30T16:41:35.400Z,26.8
2018-08-30T16:42:24.334Z,26.8
2018-08-30T16:43:16.414Z,26.8
2018-08-30T16:44:04.409Z,26.8
2018-08-30T16:44:54.628Z,26.8
2018-08-30T16:45:44.017Z,26.8
2018-08-30T16:46:34.751Z,26.8
2018-08-30T16:47:26.010Z,26.8
2018-08-30T16:48:15.017Z,26.8
2018-08-30T16:49:05.802Z,26.8
2018-08-30T16:49:54.406Z,26.8
2018-08-30T16:50:45.049Z,26.8
2018-08-30T16:51:35.627Z,26.8
2018-08-30T16:52:24.796Z,26.8
2018-08-30T16:53:15.994Z,26.8
2018-08-30T16:54:04.686Z,26.8
2018-08-30T16:54:54.474Z,26.8
2018-08-30T16:55:47.482Z,26.8
2018-08-30T16:56:35.295Z,26.8
2018-08-30T16:57:27.483Z,26.8
2018-08-30T16:58:15.004Z,26.8
2018-08-30T16:59:07.043Z,26.8
2018-08-30T16:59:55.759Z,26.8
2018-08-30T17:00:46.525Z,26.8
2018-08-30T17:01:35.374Z,26.8
2018-08-30T17:02:28.746Z,26.8
2018-08-30T17:03:15.036Z,26.8
2018-08-30T17:04:06.606Z,26.8
2018-08-30T17:04:56.858Z,26.8
2018-08-30T17:05:46.236Z,26.8
2018-08-30T17:06:36.957Z,26.8
2018-08-30T17:07:26.383Z,26.8
2018-08-30T17:08:16.171Z,26.8
2018-08-30T17:09:06.186Z,26.8
2018-08-30T17:09:56.236Z,26.8
2018-08-30T17:10:46.546Z,26.8
2018-08-30T17:11:36.181Z,26.8
2018-08-30T17:12:26.208Z,26.8
2018-08-30T17:13:16.774Z,26.8
2018-08-30T17:14:06.353Z,26.8
2018-08-30T17:14:57.608Z,26.8
2018-08-30T17:15:46.193Z,26.8
2018-08-30T17:16:37.260Z,26.8
2018-08-30T17:17:28.517Z,26.8
2018-08-30T17:18:19.328Z,26.8
2018-08-30T17:19:06.948Z,26.8
2018-08-30T17:19:57.025Z,26.8
2018-08-30T17:20:47.495Z,26.8
2018-08-30T17:21:38.166Z,26.8
2018-08-30T17:22:27.750Z,26.8
2018-08-30T17:23:17.195Z,26.8
2018-08-30T17:24:08.016Z,26.8
2018-08-30T17:24:58.402Z,26.8
2018-08-30T17:25:47.495Z,26.8
2018-08-30T17:26:37.507Z,26.8
2018-08-30T17:27:28.225Z,26.8
2018-08-30T17:28:18.485Z,26.8
2018-08-30T17:29:08.322Z,26.8
2018-08-30T17:29:58.074Z,26.8
2018-08-30T17:30:47.176Z,26.8
2018-08-30T17:31:37.969Z,26.8
2018-08-30T17:32:27.860Z,26.8
2018-08-30T17:33:18.704Z,26.8
2018-08-30T17:34:08.752Z,26.8
2018-08-30T17:34:58.115Z,26.8
2018-08-30T17:35:49.671Z,26.8
2018-08-30T17:36:39.252Z,26.8
2018-08-30T17:37:29.192Z,26.8
2018-08-30T17:38:18.599Z,26.8
2018-08-30T17:39:09.815Z,26.8
2018-08-30T17:39:59.049Z,26.9
2018-08-30T17:40:49.274Z,26.8
2018-08-30T17:41:39.013Z,26.8
2018-08-30T17:42:30.446Z,26.9
2018-08-30T17:43:18.326Z,26.8
2018-08-30T17:44:09.489Z,26.8
2018-08-30T17:44:59.561Z,26.8
2018-08-30T17:45:49.512Z,26.8
2018-08-30T17:46:38.789Z,26.8
2018-08-30T17:47:29.433Z,26.8
2018-08-30T17:48:20.085Z,26.8
2018-08-30T17:49:09.389Z,26.8
2018-08-30T17:50:00.306Z,26.8
2018-08-30T17:50:49.346Z,26.8
2018-08-30T17:51:39.266Z,26.8
2018-08-30T17:52:29.781Z,26.8
2018-08-30T17:53:18.965Z,26.8
2018-08-30T17:54:10.471Z,26.8
2018-08-30T17:55:00.706Z,26.8
2018-08-30T17:55:51.176Z,26.8
2018-08-30T17:56:41.591Z,26.9
2018-08-30T17:57:29.907Z,26.9
2018-08-30T17:58:20.393Z,26.9
2018-08-30T17:59:10.751Z,26.9
2018-08-30T18:00:02.371Z,26.9
2018-08-30T18:00:50.102Z,26.8
2018-08-30T18:01:41.158Z,26.8
2018-08-30T18:02:30.781Z,26.8
2018-08-30T18:03:21.742Z,26.8
2018-08-30T18:04:10.813Z,26.8
2018-08-30T18:05:00.772Z,26.9
2018-08-30T18:05:50.858Z,26.8
2018-08-30T18:06:41.690Z,26.8
2018-08-30T18:07:30.635Z,26.8
2018-08-30T18:08:21.274Z,26.8
2018-08-30T18:09:11.532Z,26.8
2018-08-30T18:10:02.177Z,26.8
2018-08-30T18:10:50.960Z,26.8
2018-08-30T18:11:40.524Z,26.8
2018-08-30T18:12:31.585Z,26.8
2018-08-30T18:13:21.074Z,26.8
2018-08-30T18:14:11.392Z,26.8